Language selection

Weather shortcuts

West Coast Vancouver Island South: Past 24 Hour Conditions

 

Sentry Shoal - 46131

09:00 PM PDT 12 June 2024Buoy position: 49.92N 125.0W
Disclaimer

This table is a summary of hourly weather conditions for the past 24 hours.
Please note that these observations might not always be representative of weather conditions over their associated marine area.

Date / Time
(PDT)
Wind(knots) Wave height(m) Wave period(s) Pressure(kPa) Air tempC) Water tempC)
12 June 2024
21:00 ENE 5 gusts 7 0.04 1.9 102.2 16 15
20:00 ESE 3 gusts 4 0.03 2.6 102.2 17 15
19:00 ESE 4 gusts 4 0.04 2.8 102.3 16 15
18:00 ENE 5 gusts 6 0.04 2.2 102.3 16 15
17:00 ENE 5 gusts 5 0.06 2.4 102.4 16 15
16:00 NNE 3 gusts 4 0.10 2.7 102.4 15 15
15:00 N 2 gusts 3 0.11 2.6 102.4 15 15
14:00 WNW 5 gusts 6 0.15 2.6 102.4 15 15
13:00 WNW 9 gusts 10 0.16 2.8 102.4 14 14
12:00 WNW 9 gusts 10 0.24 3.1 102.4 13 14
11:00 SW 10 gusts 12 0.38 3.0 102.4 13 14
10:00 SSW 12 gusts 15 0.39 2.8 102.4 13 13
9:00 SW 11 gusts 14 0.39 2.8 102.4 12 13
8:00 NE 13 gusts 16 0.38 2.7 102.4 11 13
7:00 NNW 12 gusts 15 0.33 2.9 102.4 11 13
6:00 WNW 10 gusts 13 0.30 2.7 102.3 11 13
5:00 WSW 12 gusts 15 0.38 2.9 102.3 11 13
4:00 WNW 10 gusts 13 0.32 3.0 102.3 11 13
3:00 WNW 13 gusts 16 0.39 3.2 102.3 12 13
2:00 WNW 14 gusts 16 0.42 3.4 102.2 12 12
1:00 WNW 16 gusts 19 0.46 3.3 102.2 12 12
0:00 WNW 17 gusts 19 0.38 2.8 102.1 12 12
11 June 2024
23:00 NW 13 gusts 16 0.29 2.4 102.1 13 13
22:00 NW 13 gusts 16 0.29 2.5 102.0 13 13
21:00 NW 13 gusts 17 0.34 2.8 101.9 14 13

Zoom-in to make a selection

Map of Pacific - Georgia Basin marine weather areas Sentry Shoal - 46131 Halibut Bank - 46146 La Perouse Bank - 46206 Georgia Strait - 46303 English Bay – 46304 Discovery Island Esquimalt Harbour Kelp Reefs Malahat Race Rocks Lightstation Saturna Island Sheringham Point University of Victoria Victoria Gonzales Victoria Int'l Airport Ballenas Islands Campbell River Airport Comox Airport Entrance Island Fanny Island Nanaimo Airport Sisters Islets Estevan Point Port Alberni Tofino Airport Grief Point Howe Sound - Pam Rocks Powell River Airport Sechelt Squamish Airport Point Atkinson Sand Heads Lightstation Tsawwassen Ferry Terminal Vancouver Int'l Airport Vancouver Harbour West Vancouver
Legend:
buoy Buoy
land station Land Station

Pacific - Georgia Basin Area

Another Region

Features

New Predicting and Alerting Coastal Flooding Program

Find out about coastal flooding coverage, forecasts and warnings in your region

Date modified: